Time;durP1;ratioP1;P1;durP2;ratioP2;P2;SDS_P1;SDS_P2;PMS_P1;PMS_P2;Temp;Humidity;BMP_temperature;BMP_pressure;BME280_temperature;BME280_humidity;BME280_pressure;Samples;Min_cycle;Max_cycle;Signal;HPM_P1;HPM_P2
2023/01/14 00:01:05;;;;;;;18.25;2.40;;;7.20;99.90;;;;;;5111960;27;20520;-83
2023/01/14 00:03:32;;;;;;;18.90;2.67;;;6.70;99.90;;;;;;5129836;27;20042;-82
2023/01/14 00:06:00;;;;;;;22.00;2.53;;;6.70;99.90;;;;;;5129957;27;20035;-81
2023/01/14 00:08:27;;;;;;;18.23;4.07;;;6.70;99.90;;;;;;5128267;27;20070;-84
2023/01/14 00:10:53;;;;;;;29.55;3.65;;;6.70;99.90;;;;;;5129979;27;20031;-82
2023/01/14 00:13:19;;;;;;;17.58;3.88;;;6.60;99.90;;;;;;5109646;27;20381;-82
2023/01/14 00:15:56;;;;;;;18.98;2.58;;;6.70;99.90;;;;;;5110242;27;20506;-82
2023/01/14 00:18:22;;;;;;;23.08;3.15;;;7.30;99.90;;;;;;5098048;27;20138;-82
2023/01/14 00:21:07;;;;;;;16.77;3.05;;;6.80;99.90;;;;;;5108833;27;20082;-82
2023/01/14 00:23:34;;;;;;;12.52;2.28;;;7.30;99.90;;;;;;5088181;27;20088;-82
2023/01/14 00:26:07;;;;;;;17.63;3.42;;;6.80;99.90;;;;;;5131025;27;20034;-82
2023/01/14 00:28:33;;;;;;;16.02;3.08;;;6.90;99.90;;;;;;5104692;28;20054;-82
2023/01/14 00:31:08;;;;;;;19.58;2.30;;;6.90;99.90;;;;;;5110700;27;20042;-82
2023/01/14 00:33:36;;;;;;;20.98;2.75;;;6.90;99.90;;;;;;5094424;27;20041;-82
2023/01/14 00:36:02;;;;;;;21.35;2.97;;;6.90;99.90;;;;;;5110929;27;20075;-82
2023/01/14 00:38:28;;;;;;;17.35;2.80;;;7.20;99.90;;;;;;5092992;27;20431;-82
2023/01/14 00:41:15;;;;;;;21.98;2.30;;;7.00;99.90;;;;;;5110442;27;20102;-82
2023/01/14 00:43:43;;;;;;;11.73;2.67;;;7.00;99.90;;;;;;5123234;27;20102;-82
2023/01/14 00:46:13;;;;;;;13.38;2.85;;;7.00;99.90;;;;;;5087894;27;20039;-82
2023/01/14 00:48:39;;;;;;;15.15;2.65;;;7.00;99.90;;;;;;5127471;27;20054;-82
2023/01/14 00:51:06;;;;;;;16.73;2.53;;;7.00;99.90;;;;;;5094905;27;20031;-82
2023/01/14 00:53:32;;;;;;;15.30;2.22;;;7.10;99.90;;;;;;5091320;27;20085;-82
2023/01/14 00:55:57;;;;;;;11.27;1.75;;;7.10;99.90;;;;;;5116921;27;20066;-82
2023/01/14 00:58:24;;;;;;;12.65;2.60;;;7.10;99.90;;;;;;5099718;27;20030;-81
2023/01/14 01:00:54;;;;;;;14.63;2.50;;;7.10;99.90;;;;;;5132140;27;20035;-81
2023/01/14 01:03:20;;;;;;;12.95;2.20;;;7.70;99.90;;;;;;5126684;27;20405;-82
2023/01/14 01:05:47;;;;;;;14.48;2.75;;;7.00;99.90;;;;;;5143468;27;20042;-81
2023/01/14 01:08:15;;;;;;;18.10;2.38;;;7.00;99.90;;;;;;5118014;27;20027;-82
2023/01/14 01:10:50;;;;;;;15.90;2.58;;;7.00;99.90;;;;;;5133193;27;20054;-82
2023/01/14 01:13:16;;;;;;;9.85;1.60;;;7.00;99.90;;;;;;5121804;27;20576;-82
2023/01/14 01:15:43;;;;;;;16.25;2.55;;;7.00;99.90;;;;;;5107630;27;20092;-82
2023/01/14 01:18:10;;;;;;;19.50;3.17;;;7.00;99.90;;;;;;5116685;27;20033;-82
2023/01/14 01:20:36;;;;;;;13.70;1.75;;;6.90;99.90;;;;;;5115046;27;20050;-82
2023/01/14 01:23:03;;;;;;;14.52;2.42;;;7.50;99.90;;;;;;5119964;27;20039;-82
2023/01/14 01:25:29;;;;;;;22.15;2.63;;;6.90;99.90;;;;;;5135876;27;20892;-82
2023/01/14 01:27:55;;;;;;;20.25;3.08;;;6.90;99.90;;;;;;5123471;27;20038;-82
2023/01/14 01:30:22;;;;;;;16.10;2.70;;;7.10;99.90;;;;;;5132250;27;20047;-82
2023/01/14 01:32:48;;;;;;;17.35;2.78;;;6.80;99.90;;;;;;5100759;27;20168;-82
2023/01/14 01:35:14;;;;;;;17.27;2.85;;;6.70;99.90;;;;;;5119027;27;20118;-82
2023/01/14 01:37:39;;;;;;;21.33;2.85;;;6.70;99.90;;;;;;5117183;27;20049;-82
2023/01/14 01:40:06;;;;;;;20.00;2.78;;;6.60;99.90;;;;;;5099777;27;20036;-82
2023/01/14 01:42:33;;;;;;;17.20;3.28;;;6.60;99.90;;;;;;5116449;28;20066;-82
2023/01/14 01:45:41;;;;;;;20.52;3.17;;;6.60;99.90;;;;;;5125762;27;20046;-82
2023/01/14 01:48:15;;;;;;;14.75;2.17;;;6.50;99.90;;;;;;5092408;27;20043;-82
2023/01/14 01:50:42;;;;;;;16.00;2.63;;;6.50;99.90;;;;;;5118372;27;20734;-82
2023/01/14 01:53:08;;;;;;;22.02;2.67;;;6.50;99.90;;;;;;5120622;27;20075;-82
2023/01/14 01:55:37;;;;;;;18.23;2.78;;;6.40;99.90;;;;;;5117372;27;20051;-82
2023/01/14 01:58:04;;;;;;;17.70;2.20;;;6.40;99.90;;;;;;5112394;27;20035;-82
2023/01/14 02:00:29;;;;;;;20.58;2.83;;;6.40;99.90;;;;;;5118543;27;20031;-82
2023/01/14 02:03:01;;;;;;;11.98;2.13;;;6.40;99.90;;;;;;5120382;27;20046;-82
2023/01/14 02:05:27;;;;;;;17.48;3.25;;;6.40;99.90;;;;;;5120062;27;20110;-82
2023/01/14 02:07:53;;;;;;;14.90;2.30;;;6.40;99.90;;;;;;5123983;27;20176;-82
2023/01/14 02:10:21;;;;;;;16.52;2.83;;;6.50;99.90;;;;;;5109727;27;20067;-82
2023/01/14 02:13:30;;;;;;;20.75;2.85;;;6.50;99.90;;;;;;5090653;27;20043;-82
2023/01/14 02:16:37;;;;;;;20.45;3.22;;;6.50;99.90;;;;;;5120464;27;20035;-82
2023/01/14 02:19:27;;;;;;;15.35;2.20;;;6.60;99.90;;;;;;5033595;28;20049;-82
2023/01/14 02:22:02;;;;;;;15.60;2.15;;;6.70;99.90;;;;;;5029862;28;20063;-82
2023/01/14 02:24:39;;;;;;;17.67;2.63;;;6.80;99.90;;;;;;5034824;28;20124;-82
2023/01/14 02:27:13;;;;;;;17.73;2.03;;;6.80;99.90;;;;;;5022824;28;20049;-82
2023/01/14 02:30:08;;;;;;;12.98;2.13;;;6.80;99.90;;;;;;5023521;28;20049;-82
2023/01/14 02:32:46;;;;;;;18.40;2.53;;;6.80;99.90;;;;;;5033277;28;20060;-82
2023/01/14 02:35:44;;;;;;;20.02;3.10;;;6.80;99.90;;;;;;5030201;28;20108;-82
2023/01/14 02:38:25;;;;;;;19.25;2.97;;;6.80;99.90;;;;;;5018332;28;20044;-82
2023/01/14 02:41:00;;;;;;;20.77;2.97;;;6.80;99.90;;;;;;5045817;28;20068;-82
2023/01/14 02:44:10;;;;;;;16.08;1.98;;;6.70;99.90;;;;;;5008950;28;20045;-82
2023/01/14 02:46:45;;;;;;;17.35;2.22;;;6.70;99.90;;;;;;4997919;28;20049;-82
2023/01/14 02:49:14;;;;;;;28.20;2.50;;;6.70;99.90;;;;;;5017038;28;20135;-81
2023/01/14 02:51:41;;;;;;;19.27;2.60;;;6.70;99.90;;;;;;5038020;28;20052;-81
2023/01/14 02:54:07;;;;;;;20.70;2.75;;;6.70;99.90;;;;;;5071376;27;20138;-81
2023/01/14 02:56:33;;;;;;;18.33;3.05;;;6.70;99.90;;;;;;5116988;27;20096;-81
2023/01/14 02:59:13;;;;;;;19.65;2.45;;;6.70;99.90;;;;;;5145469;27;20042;-81
2023/01/14 03:02:03;;;;;;;20.30;2.90;;;6.60;99.90;;;;;;5093920;27;20168;-81
2023/01/14 03:04:30;;;;;;;17.65;2.40;;;6.60;99.90;;;;;;5124733;27;20043;-81
2023/01/14 03:07:18;;;;;;;16.75;2.80;;;7.50;99.90;;;;;;5122763;27;20073;-81
2023/01/14 03:10:03;;;;;;;16.90;1.90;;;6.50;99.90;;;;;;5139047;27;20096;-81
2023/01/14 03:12:28;;;;;;;;;;;6.50;99.90;;;;;;5126977;27;20080;-81
2023/01/14 03:15:20;;;;;;;14.48;2.60;;;6.40;99.90;;;;;;5108517;27;19922;-80
2023/01/14 03:17:49;;;;;;;18.83;2.58;;;6.40;99.90;;;;;;5051349;27;20527;-81
2023/01/14 03:20:21;;;;;;;19.20;3.10;;;6.30;99.90;;;;;;5121376;27;20087;-81
2023/01/14 03:22:49;;;;;;;14.13;1.85;;;6.60;99.90;;;;;;5101796;27;20060;-81
2023/01/14 03:25:17;;;;;;;17.08;2.83;;;6.30;99.90;;;;;;5124361;27;20027;-80
2023/01/14 03:27:46;;;;;;;16.02;3.28;;;6.20;99.90;;;;;;5121437;27;20115;-80
2023/01/14 03:30:17;;;;;;;17.45;2.50;;;6.50;99.90;;;;;;5143363;27;20073;-81
2023/01/14 03:32:51;;;;;;;23.55;2.85;;;6.20;99.90;;;;;;5136033;27;20050;-81
2023/01/14 03:35:24;;;;;;;11.60;2.05;;;6.20;99.90;;;;;;5125501;27;20043;-81
2023/01/14 03:38:06;;;;;;;24.63;3.10;;;6.20;99.90;;;;;;5118639;27;20102;-81
2023/01/14 03:40:34;;;;;;;13.95;2.72;;;6.20;99.90;;;;;;5119255;27;20031;-80
2023/01/14 03:43:21;;;;;;;12.63;2.53;;;6.10;99.90;;;;;;5121153;27;20406;-80
2023/01/14 03:45:48;;;;;;;17.98;3.17;;;6.10;99.90;;;;;;5079810;27;20075;-81
2023/01/14 03:48:17;;;;;;;19.15;2.78;;;6.10;99.90;;;;;;5132988;27;20065;-80
2023/01/14 03:50:52;;;;;;;19.40;2.55;;;6.00;99.90;;;;;;5118670;27;20577;-81
2023/01/14 03:53:24;;;;;;;19.50;2.58;;;6.20;99.90;;;;;;5127890;27;20067;-80
2023/01/14 03:56:21;;;;;;;15.98;2.35;;;6.00;99.90;;;;;;5123487;27;20039;-81
2023/01/14 03:58:50;;;;;;;17.83;2.92;;;6.00;99.90;;;;;;5110101;28;20174;-80
2023/01/14 04:01:40;;;;;;;18.35;2.60;;;6.20;99.90;;;;;;5113475;27;20205;-80
2023/01/14 04:04:07;;;;;;;18.17;2.28;;;6.00;99.90;;;;;;5122925;27;20062;-80
2023/01/14 04:06:32;;;;;;;24.73;2.40;;;6.00;99.90;;;;;;5144412;27;20042;-80
2023/01/14 04:08:58;;;;;;;12.50;2.13;;;6.00;99.90;;;;;;5105708;27;20035;-80
2023/01/14 04:11:24;;;;;;;17.30;2.10;;;6.00;99.90;;;;;;5122295;27;20074;-80
2023/01/14 04:16:34;;;;;;;19.55;3.10;;;5.90;99.90;;;;;;5111287;27;20138;-80
2023/01/14 04:18:59;;;;;;;22.35;3.58;;;5.90;99.90;;;;;;5139429;27;20114;-80
2023/01/14 04:21:25;;;;;;;17.20;2.22;;;5.90;99.90;;;;;;5120788;27;20039;-80
2023/01/14 04:23:50;;;;;;;13.98;2.70;;;5.90;99.90;;;;;;5124279;27;20436;-80
2023/01/14 04:26:16;;;;;;;20.63;3.10;;;5.90;99.90;;;;;;5136239;27;20039;-80
2023/01/14 04:28:42;;;;;;;16.80;2.40;;;5.90;99.90;;;;;;5122996;27;20091;-80
2023/01/14 04:31:07;;;;;;;16.08;1.88;;;5.90;99.90;;;;;;5120564;27;20045;-80
2023/01/14 04:33:33;;;;;;;14.05;2.25;;;5.90;99.90;;;;;;5136310;27;20107;-80
2023/01/14 04:35:59;;;;;;;13.20;3.05;;;5.90;99.90;;;;;;5103563;27;20122;-81
2023/01/14 04:38:24;;;;;;;19.25;3.20;;;5.90;99.90;;;;;;5126397;27;20038;-80
2023/01/14 04:40:52;;;;;;;20.15;2.70;;;5.90;99.90;;;;;;5115347;27;20424;-80
2023/01/14 04:43:18;;;;;;;18.48;2.72;;;5.90;99.90;;;;;;5123764;27;20477;-80
2023/01/14 04:45:44;;;;;;;11.65;2.58;;;6.00;99.90;;;;;;5121676;27;20043;-80
2023/01/14 04:48:10;;;;;;;18.38;2.20;;;5.80;99.90;;;;;;5117253;27;20058;-80
2023/01/14 04:50:41;;;;;;;15.70;1.83;;;6.30;99.90;;;;;;5133874;27;20799;-81
2023/01/14 04:53:15;;;;;;;10.50;1.80;;;5.80;99.90;;;;;;5099113;27;20500;-80
2023/01/14 04:55:42;;;;;;;21.98;2.35;;;5.80;99.90;;;;;;5092628;27;20046;-80
2023/01/14 04:58:10;;;;;;;16.10;1.90;;;5.90;99.90;;;;;;5118605;27;20043;-80
2023/01/14 05:00:36;;;;;;;17.60;2.22;;;5.80;99.90;;;;;;5119669;27;20531;-80
2023/01/14 05:03:03;;;;;;;26.63;2.88;;;5.80;99.90;;;;;;5112592;27;20043;-80
2023/01/14 05:05:29;;;;;;;19.98;2.83;;;5.80;99.90;;;;;;5126888;27;20046;-80
2023/01/14 05:07:55;;;;;;;14.82;2.20;;;5.80;99.90;;;;;;5119765;27;20027;-80
2023/01/14 05:10:20;;;;;;;11.85;2.55;;;5.80;99.90;;;;;;5107671;27;20035;-80
2023/01/14 05:12:58;;;;;;;16.00;2.72;;;5.70;99.90;;;;;;5114969;27;20057;-80
2023/01/14 05:15:30;;;;;;;15.95;2.28;;;5.70;99.90;;;;;;5139356;27;20086;-80
2023/01/14 05:17:56;;;;;;;20.60;2.67;;;5.70;99.90;;;;;;5137735;27;20027;-80
2023/01/14 05:20:26;;;;;;;12.77;2.30;;;5.70;99.90;;;;;;5128523;27;20042;-80
2023/01/14 05:22:56;;;;;;;23.42;2.22;;;5.70;99.90;;;;;;5113719;27;20062;-80
2023/01/14 05:25:22;;;;;;;12.82;2.67;;;5.70;99.90;;;;;;5141564;27;20043;-80
2023/01/14 05:27:47;;;;;;;14.55;2.17;;;5.70;99.90;;;;;;5126274;27;20027;-80
2023/01/14 05:30:13;;;;;;;18.60;2.92;;;5.70;99.90;;;;;;5128381;27;20118;-80
2023/01/14 05:32:39;;;;;;;15.48;2.13;;;5.80;99.90;;;;;;5112410;27;20035;-80
2023/01/14 05:35:05;;;;;;;10.30;2.38;;;6.40;99.90;;;;;;5136082;27;20042;-80
2023/01/14 05:37:32;;;;;;;12.85;2.33;;;5.80;99.90;;;;;;5130368;27;20077;-80
2023/01/14 05:39:58;;;;;;;20.23;2.75;;;5.70;99.90;;;;;;5133032;27;20038;-80
2023/01/14 05:47:55;;;;;;;17.92;2.47;;;5.70;99.90;;;;;;5137598;27;20035;-80
2023/01/14 05:50:21;;;;;;;16.75;4.20;;;5.70;99.90;;;;;;5138597;27;20047;-80
2023/01/14 05:52:47;;;;;;;18.48;3.47;;;5.80;99.90;;;;;;5115102;27;20123;-80
2023/01/14 05:55:12;;;;;;;16.83;3.17;;;5.70;99.90;;;;;;5140327;27;20035;-80
2023/01/14 05:57:38;;;;;;;23.77;5.75;;;5.70;99.90;;;;;;5137816;27;20091;-80
2023/01/14 06:00:05;;;;;;;15.13;4.75;;;5.70;99.90;;;;;;5133962;27;20518;-80
2023/01/14 06:08:03;;;;;;;20.13;3.40;;;5.70;99.90;;;;;;5117507;27;20047;-80
2023/01/14 06:10:29;;;;;;;15.00;4.43;;;5.70;99.90;;;;;;5140121;27;20039;-80
2023/01/14 06:12:57;;;;;;;19.05;3.80;;;5.80;99.90;;;;;;5137598;27;20027;-80
2023/01/14 06:15:25;;;;;;;18.13;3.13;;;5.70;99.90;;;;;;5121866;27;20186;-80
2023/01/14 06:18:08;;;;;;;14.75;4.10;;;5.80;99.90;;;;;;5095296;27;20031;-80
2023/01/14 06:20:34;;;;;;;26.02;5.78;;;5.70;99.90;;;;;;5133215;27;20039;-80
2023/01/14 06:23:00;;;;;;;17.80;4.05;;;5.70;99.90;;;;;;5115061;27;20369;-80
2023/01/14 06:25:28;;;;;;;20.55;4.03;;;5.70;99.90;;;;;;5111862;27;20053;-80
2023/01/14 06:27:53;;;;;;;20.08;3.95;;;5.70;99.90;;;;;;5137841;27;20047;-80
2023/01/14 06:30:19;;;;;;;19.30;3.75;;;5.70;99.90;;;;;;5120429;27;20043;-80
2023/01/14 06:32:45;;;;;;;24.38;4.57;;;5.70;99.90;;;;;;5105950;27;20035;-80
2023/01/14 06:35:10;;;;;;;16.20;4.55;;;5.70;99.90;;;;;;5116862;27;20031;-80
2023/01/14 06:37:36;;;;;;;25.40;5.60;;;5.70;99.90;;;;;;5137602;27;20042;-80
2023/01/14 06:40:02;;;;;;;25.20;5.03;;;5.70;99.90;;;;;;5137713;27;20088;-80
2023/01/14 06:42:27;;;;;;;27.08;4.75;;;5.70;99.90;;;;;;5107834;27;20819;-80
2023/01/14 06:44:53;;;;;;;22.08;4.90;;;6.00;99.90;;;;;;5137350;27;20087;-80
2023/01/14 06:47:18;;;;;;;24.10;5.47;;;5.70;99.90;;;;;;5140729;27;20038;-80
2023/01/14 06:49:44;;;;;;;29.23;6.40;;;5.70;99.90;;;;;;5136153;27;20477;-80
2023/01/14 06:52:10;;;;;;;21.60;5.28;;;5.70;99.90;;;;;;5123348;27;20396;-81
2023/01/14 06:54:35;;;;;;;27.85;6.43;;;5.70;99.90;;;;;;5124543;27;20843;-79
2023/01/14 06:57:04;;;;;;;28.27;5.70;;;5.60;99.90;;;;;;5131299;27;20073;-80
2023/01/14 06:59:30;;;;;;;26.55;6.07;;;5.70;99.90;;;;;;5140548;27;20035;-80
2023/01/14 07:01:55;;;;;;;20.15;5.63;;;5.70;99.90;;;;;;5126783;27;20172;-80
2023/01/14 07:04:21;;;;;;;19.50;5.07;;;5.70;99.90;;;;;;5136823;27;20458;-80
2023/01/14 07:06:46;;;;;;;25.77;5.60;;;5.70;99.90;;;;;;5114782;27;20230;-80
2023/01/14 07:09:13;;;;;;;22.17;5.25;;;5.60;99.90;;;;;;5122124;27;20035;-80
2023/01/14 07:11:39;;;;;;;33.03;5.60;;;5.60;99.90;;;;;;5122171;27;20039;-80
2023/01/14 07:14:05;;;;;;;28.27;5.72;;;5.60;99.90;;;;;;5137786;27;20400;-80
2023/01/14 07:16:30;;;;;;;20.05;4.50;;;5.70;99.90;;;;;;5121409;27;20035;-80
2023/01/14 07:18:56;;;;;;;25.27;5.00;;;5.70;99.90;;;;;;5141126;27;20039;-80
2023/01/14 07:21:21;;;;;;;27.80;5.07;;;5.70;99.90;;;;;;5136905;27;20563;-81
2023/01/14 07:23:49;;;;;;;23.77;5.43;;;5.80;99.90;;;;;;5125480;27;20070;-80
2023/01/14 07:26:16;;;;;;;26.13;4.68;;;5.80;99.90;;;;;;5122313;27;20088;-79
2023/01/14 07:28:42;;;;;;;28.33;4.88;;;5.80;99.90;;;;;;5131995;27;20158;-80
2023/01/14 07:31:07;;;;;;;26.67;5.30;;;5.80;99.90;;;;;;5142119;27;20114;-81
2023/01/14 07:33:33;;;;;;;24.80;5.10;;;5.90;99.90;;;;;;5139748;27;20035;-80
2023/01/14 07:35:59;;;;;;;19.05;5.10;;;5.90;99.90;;;;;;5120706;27;20043;-81
2023/01/14 07:38:25;;;;;;;31.30;5.07;;;5.90;99.90;;;;;;5115385;27;20059;-80
2023/01/14 07:40:50;;;;;;;23.00;4.68;;;5.90;99.90;;;;;;5122055;27;20058;-84
2023/01/14 07:43:16;;;;;;;28.35;5.32;;;6.00;99.90;;;;;;5120366;27;20039;-81
2023/01/14 07:45:42;;;;;;;24.20;5.13;;;6.00;99.90;;;;;;5133183;27;20396;-83
2023/01/14 07:48:07;;;;;;;26.25;4.43;;;6.00;99.90;;;;;;5100020;27;20507;-80
2023/01/14 07:50:33;;;;;;;24.83;5.47;;;6.00;99.90;;;;;;5135713;27;20054;-82
2023/01/14 07:52:59;;;;;;;29.98;4.95;;;6.00;99.90;;;;;;5095363;28;20126;-81
2023/01/14 07:55:26;;;;;;;25.00;5.80;;;6.00;99.90;;;;;;5099756;27;20042;-82
2023/01/14 07:57:52;;;;;;;25.23;5.18;;;6.10;99.90;;;;;;5124122;27;20051;-82
2023/01/14 08:00:18;;;;;;;27.50;5.05;;;6.00;99.90;;;;;;5117319;27;20065;-83
2023/01/14 08:02:44;;;;;;;20.90;4.38;;;6.10;99.90;;;;;;5133521;27;20431;-82
2023/01/14 08:05:10;;;;;;;25.00;5.63;;;6.10;99.90;;;;;;5136580;27;20406;-82
2023/01/14 08:07:36;;;;;;;23.10;5.07;;;6.10;99.90;;;;;;5122285;27;20133;-82
2023/01/14 08:10:02;;;;;;;22.30;5.03;;;6.20;99.90;;;;;;5134255;27;20043;-81
2023/01/14 08:12:31;;;;;;;25.58;4.80;;;6.20;99.90;;;;;;5128222;27;20031;-82
2023/01/14 08:14:58;;;;;;;27.65;4.65;;;6.10;99.90;;;;;;5128312;27;20043;-81
2023/01/14 08:17:23;;;;;;;21.15;4.38;;;6.20;99.90;;;;;;5134186;27;20046;-82
2023/01/14 08:19:49;;;;;;;28.42;5.13;;;6.20;99.90;;;;;;5097037;27;20039;-82
2023/01/14 08:22:15;;;;;;;27.65;4.70;;;6.20;99.90;;;;;;5116560;27;20035;-82
2023/01/14 08:24:40;;;;;;;22.98;5.43;;;6.80;99.90;;;;;;5119855;27;20162;-82
2023/01/14 08:27:06;;;;;;;29.17;4.97;;;6.30;99.90;;;;;;5115568;27;20053;-82
2023/01/14 08:29:31;;;;;;;20.13;4.18;;;6.30;99.90;;;;;;5117602;27;20482;-82
2023/01/14 08:31:57;;;;;;;29.90;4.90;;;6.30;99.90;;;;;;5103305;27;20031;-82
2023/01/14 08:34:24;;;;;;;24.33;4.00;;;6.30;99.90;;;;;;5117864;27;20351;-82
2023/01/14 08:36:50;;;;;;;23.15;5.03;;;6.30;99.90;;;;;;5129096;27;20394;-83
2023/01/14 08:39:16;;;;;;;29.20;5.03;;;6.30;99.90;;;;;;5121965;27;20062;-82
2023/01/14 08:41:42;;;;;;;19.48;4.10;;;6.30;99.90;;;;;;5086857;28;20035;-82
2023/01/14 08:44:09;;;;;;;24.10;4.20;;;6.30;99.90;;;;;;5112293;27;20039;-82
2023/01/14 08:46:35;;;;;;;25.92;3.80;;;6.20;99.90;;;;;;5104860;27;20035;-82
2023/01/14 08:49:01;;;;;;;30.60;4.45;;;6.20;99.90;;;;;;5108622;27;20140;-82
2023/01/14 08:51:28;;;;;;;16.73;4.07;;;6.30;99.90;;;;;;5141277;27;20430;-82
2023/01/14 08:54:00;;;;;;;21.80;4.30;;;6.20;99.90;;;;;;5120403;27;20034;-82
2023/01/14 08:56:27;;;;;;;21.23;3.92;;;6.20;99.90;;;;;;5128255;27;20035;-82
2023/01/14 08:58:53;;;;;;;20.23;3.50;;;6.20;99.90;;;;;;5130856;27;20027;-82
2023/01/14 09:01:19;;;;;;;19.48;4.22;;;6.20;99.90;;;;;;5113019;27;20058;-82
2023/01/14 09:03:46;;;;;;;30.83;4.93;;;6.20;99.90;;;;;;5117843;27;20039;-82
2023/01/14 09:06:13;;;;;;;20.00;4.40;;;6.20;99.90;;;;;;5114651;27;20048;-83
2023/01/14 09:17:10;;;;;;;23.98;4.55;;;6.20;99.90;;;;;;5127211;27;20509;-83
2023/01/14 09:19:44;;;;;;;17.80;3.78;;;6.20;99.90;;;;;;5114330;28;20169;-82
2023/01/14 09:22:13;;;;;;;18.00;3.67;;;6.40;99.90;;;;;;5121038;27;20087;-83
2023/01/14 09:24:39;;;;;;;19.92;3.55;;;6.20;99.90;;;;;;5138869;27;20109;-83
2023/01/14 09:27:04;;;;;;;20.63;3.60;;;6.20;99.90;;;;;;5099759;27;20453;-83
2023/01/14 09:29:30;;;;;;;15.07;3.72;;;6.10;99.90;;;;;;5121576;27;20061;-83
2023/01/14 09:31:56;;;;;;;14.38;3.55;;;6.20;99.90;;;;;;5136056;27;20062;-83
2023/01/14 09:34:21;;;;;;;23.13;3.63;;;6.20;99.90;;;;;;5138881;27;20376;-83
2023/01/14 09:36:49;;;;;;;18.92;3.15;;;6.20;99.90;;;;;;5108715;27;20035;-83
2023/01/14 09:39:14;;;;;;;21.33;3.88;;;6.20;99.90;;;;;;5118549;27;20552;-83
2023/01/14 09:41:49;;;;;;;16.25;3.85;;;6.10;99.90;;;;;;5134470;27;20145;-83
2023/01/14 09:44:15;;;;;;;13.93;3.60;;;6.20;99.90;;;;;;5139451;27;20043;-83
2023/01/14 09:46:41;;;;;;;20.50;2.92;;;6.20;99.90;;;;;;5133998;27;20053;-83
2023/01/14 09:49:08;;;;;;;20.60;3.30;;;6.20;99.90;;;;;;5134682;27;20054;-83
2023/01/14 09:52:14;;;;;;;13.77;3.25;;;6.20;99.90;;;;;;5118963;27;20062;-83
2023/01/14 09:54:58;;;;;;;17.10;3.50;;;6.20;99.90;;;;;;5119129;27;20125;-83
2023/01/14 09:57:42;;;;;;;14.25;2.70;;;6.20;99.90;;;;;;5112743;28;20035;-83
2023/01/14 10:00:20;;;;;;;14.93;2.53;;;6.20;99.90;;;;;;5096444;27;20137;-83
2023/01/14 10:02:57;;;;;;;9.77;2.22;;;6.20;99.90;;;;;;5126255;27;20195;-83
2023/01/14 10:05:32;;;;;;;11.57;2.80;;;6.30;99.90;;;;;;5131433;27;20035;-83
2023/01/14 10:08:02;;;;;;;17.65;2.75;;;6.30;99.90;;;;;;5101896;28;20039;-83
2023/01/14 10:10:35;;;;;;;13.23;3.30;;;6.30;99.90;;;;;;5111566;27;20045;-83
2023/01/14 10:13:11;;;;;;;12.77;2.30;;;6.30;99.90;;;;;;5116745;27;20084;-83
2023/01/14 10:15:54;;;;;;;14.02;2.38;;;6.70;99.90;;;;;;5115567;27;20051;-83
2023/01/14 10:18:28;;;;;;;11.45;2.13;;;6.30;99.90;;;;;;5115410;27;20039;-83
2023/01/14 10:20:59;;;;;;;;;;;6.30;99.90;;;;;;5113308;27;20039;-83
2023/01/14 10:23:39;;;;;;;9.13;1.73;;;6.40;99.90;;;;;;5111224;28;19919;-82
2023/01/14 10:26:18;;;;;;;8.93;1.58;;;6.40;99.90;;;;;;5135987;27;20547;-83
2023/01/14 10:28:46;;;;;;;10.80;2.00;;;6.40;99.90;;;;;;5114769;28;21772;-83
2023/01/14 10:31:27;;;;;;;6.88;1.88;;;6.40;99.90;;;;;;5117339;27;20055;-83
2023/01/14 10:33:53;;;;;;;6.88;1.77;;;6.50;99.90;;;;;;5099701;27;20043;-83
2023/01/14 10:36:23;;;;;;;10.60;2.00;;;6.50;99.90;;;;;;5122978;27;20038;-83
2023/01/14 10:38:50;;;;;;;6.28;1.60;;;6.50;99.90;;;;;;5123077;27;20122;-83
2023/01/14 10:41:48;;;;;;;8.45;1.70;;;6.50;99.90;;;;;;5120063;27;20089;-83
2023/01/14 10:44:03;;;;;;;8.70;1.63;;;6.60;99.90;;;;;;5126928;27;20043;-83
2023/01/14 10:46:29;;;;;;;8.55;1.63;;;6.60;99.90;;;;;;5104183;27;20040;-83
2023/01/14 10:49:04;;;;;;;9.15;2.13;;;6.60;99.90;;;;;;5126065;27;20047;-83
2023/01/14 10:51:37;;;;;;;9.15;1.92;;;6.70;99.90;;;;;;5115233;27;20488;-83
2023/01/14 10:54:13;;;;;;;9.02;2.00;;;6.70;99.90;;;;;;5123605;27;20061;-83
2023/01/14 10:56:43;;;;;;;6.28;1.70;;;6.70;99.90;;;;;;5132212;27;20047;-82
2023/01/14 10:59:37;;;;;;;11.40;2.60;;;6.80;99.90;;;;;;5119618;27;20414;-83
2023/01/14 11:02:03;;;;;;;6.80;2.03;;;6.80;99.90;;;;;;5125525;27;20049;-83
2023/01/14 11:04:33;;;;;;;7.45;2.35;;;6.80;99.90;;;;;;5124389;27;20034;-83
2023/01/14 11:07:07;;;;;;;7.90;1.75;;;6.90;99.90;;;;;;5122395;27;20441;-83
2023/01/14 11:09:34;;;;;;;8.02;1.80;;;6.90;99.90;;;;;;5129436;27;20039;-83
2023/01/14 11:11:59;;;;;;;7.05;2.03;;;6.90;99.90;;;;;;5115079;27;20035;-83
2023/01/14 11:14:29;;;;;;;5.95;1.80;;;7.00;99.90;;;;;;5110323;27;20031;-83
2023/01/14 11:16:55;;;;;;;12.10;3.63;;;6.90;99.90;;;;;;5103010;27;20027;-82
2023/01/14 11:19:21;;;;;;;7.40;1.90;;;7.00;99.90;;;;;;5110826;27;20984;-85
2023/01/14 11:21:50;;;;;;;5.50;1.77;;;7.00;99.90;;;;;;5113495;27;20119;-85
2023/01/14 11:24:42;;;;;;;6.40;1.90;;;7.00;99.90;;;;;;5123448;27;20512;-82
2023/01/14 11:27:18;;;;;;;6.30;1.70;;;7.00;99.90;;;;;;5108957;27;20047;-84
2023/01/14 11:29:53;;;;;;;7.13;2.30;;;7.10;99.90;;;;;;5124350;27;20096;-84
2023/01/14 11:32:21;;;;;;;;;;;7.10;99.90;;;;;;5115329;27;20043;-85
2023/01/14 11:34:51;;;;;;;6.65;1.85;;;7.10;99.90;;;;;;5141198;27;19919;-85
2023/01/14 11:37:18;;;;;;;7.45;1.80;;;7.10;99.90;;;;;;5109793;27;20039;-84
2023/01/14 11:39:59;;;;;;;5.68;1.90;;;7.10;99.90;;;;;;5136803;27;20087;-85
2023/01/14 11:42:32;;;;;;;4.88;1.58;;;7.10;99.90;;;;;;5134978;27;20043;-86
2023/01/14 11:45:07;;;;;;;7.53;2.15;;;7.10;99.90;;;;;;5115637;27;20039;-85
2023/01/14 11:47:49;;;;;;;8.27;1.70;;;7.10;99.90;;;;;;5115399;27;20059;-85
2023/01/14 11:50:23;;;;;;;8.60;1.75;;;7.10;99.90;;;;;;5138486;27;20114;-85
2023/01/14 11:53:01;;;;;;;7.28;1.63;;;7.10;99.90;;;;;;5117768;27;20127;-85
2023/01/14 11:55:30;;;;;;;7.43;1.70;;;7.10;99.90;;;;;;5123052;27;20110;-84
2023/01/14 11:58:24;;;;;;;7.00;1.77;;;7.10;99.90;;;;;;5119554;27;20086;-84
2023/01/14 12:00:55;;;;;;;5.53;1.50;;;7.20;99.90;;;;;;5103371;27;20122;-84
2023/01/14 12:03:35;;;;;;;7.72;1.40;;;7.20;99.90;;;;;;5118207;27;20301;-85
2023/01/14 12:06:06;;;;;;;4.97;1.65;;;7.20;99.90;;;;;;5138052;27;20122;-85
2023/01/14 12:08:35;;;;;;;5.60;1.75;;;7.20;99.90;;;;;;5113050;27;20050;-85
2023/01/14 12:11:04;;;;;;;7.35;1.65;;;7.70;99.90;;;;;;5116027;27;20784;-85
2023/01/14 12:16:50;;;;;;;6.20;1.88;;;7.20;99.90;;;;;;5134628;27;20042;-83
2023/01/14 12:19:28;;;;;;;5.10;1.48;;;7.20;99.90;;;;;;5118368;27;20035;-83
2023/01/14 12:22:05;;;;;;;5.15;1.40;;;7.20;99.90;;;;;;5123868;27;20739;-83
2023/01/14 12:24:48;;;;;;;6.22;1.33;;;7.30;99.90;;;;;;5124765;27;20082;-84
2023/01/14 12:27:42;;;;;;;7.60;1.50;;;7.30;99.90;;;;;;5131612;27;20591;-83
2023/01/14 12:30:25;;;;;;;4.65;1.30;;;7.30;99.90;;;;;;5135067;27;20570;-83
2023/01/14 12:33:14;;;;;;;8.27;1.48;;;7.40;99.90;;;;;;5109609;27;20115;-83
2023/01/14 12:35:53;;;;;;;6.95;1.35;;;7.30;99.90;;;;;;5131926;27;20039;-83
2023/01/14 12:46:49;;;;;;;6.43;1.38;;;7.40;99.90;;;;;;5138937;27;20043;-85
2023/01/14 12:49:15;;;;;;;5.13;1.35;;;7.40;99.90;;;;;;5106015;27;20103;-85
2023/01/14 12:51:42;;;;;;;5.25;1.25;;;7.40;99.90;;;;;;5149505;27;20573;-84
2023/01/14 12:54:20;;;;;;;4.45;1.33;;;7.50;99.90;;;;;;5121383;27;20042;-85
2023/01/14 12:56:52;;;;;;;5.03;1.35;;;7.50;99.90;;;;;;5126656;27;20042;-85
2023/01/14 12:59:38;;;;;;;2.80;1.10;;;8.20;99.90;;;;;;5104140;27;20054;-86
2023/01/14 13:02:27;;;;;;;5.00;1.30;;;7.60;99.90;;;;;;5135839;27;20099;-85
2023/01/14 13:05:16;;;;;;;6.25;1.30;;;7.60;99.90;;;;;;5093464;27;20067;-85
2023/01/14 13:07:52;;;;;;;5.95;1.52;;;7.70;99.90;;;;;;5124040;27;20052;-85
2023/01/14 13:10:35;;;;;;;3.40;1.17;;;7.70;99.90;;;;;;5139308;27;20497;-85
2023/01/14 13:13:02;;;;;;;5.38;1.00;;;7.80;99.90;;;;;;5141839;27;20031;-85
2023/01/14 13:15:37;;;;;;;3.75;1.08;;;7.80;99.90;;;;;;5136601;27;20030;-86
2023/01/14 13:18:08;;;;;;;4.50;1.55;;;7.90;99.90;;;;;;5107775;27;20118;-84
2023/01/14 13:20:36;;;;;;;3.45;1.10;;;7.90;99.90;;;;;;5125944;27;20042;-84
2023/01/14 13:23:04;;;;;;;4.22;1.00;;;7.90;99.90;;;;;;5118001;27;20040;-85
2023/01/14 13:25:45;;;;;;;6.22;1.08;;;8.00;99.90;;;;;;5113539;27;20520;-85
2023/01/14 13:28:15;;;;;;;3.53;0.90;;;8.30;99.90;;;;;;5136637;27;20039;-84
2023/01/14 13:31:12;;;;;;;4.03;1.00;;;8.10;99.90;;;;;;5141176;27;20050;-84
2023/01/14 13:33:39;;;;;;;2.72;0.80;;;8.10;99.90;;;;;;5126122;27;20035;-84
2023/01/14 13:36:11;;;;;;;2.40;0.90;;;8.00;99.90;;;;;;5111930;28;20035;-83
2023/01/14 13:38:42;;;;;;;1.45;0.75;;;8.20;99.90;;;;;;5113245;28;20075;-85
2023/01/14 13:41:10;;;;;;;4.75;0.95;;;8.20;99.90;;;;;;5121021;27;20081;-84
2023/01/14 13:43:45;;;;;;;3.38;1.00;;;8.30;99.90;;;;;;5104156;28;20600;-84